Time;durP1;ratioP1;P1;durP2;ratioP2;P2;SDS_P1;SDS_P2;PMS_P1;PMS_P2;Temp;Humidity;BMP_temperature;BMP_pressure;BME280_temperature;BME280_humidity;BME280_pressure;Samples;Min_cycle;Max_cycle;Signal;HPM_P1;HPM_P2
2022/01/03 00:00:42;;;;;;;109.18;61.88;;;;;;;;;;5034728;28;20033;-67
2022/01/03 00:03:11;;;;;;;102.72;54.20;;;;;;;;;;5039710;28;20446;-66
2022/01/03 00:05:38;;;;;;;91.45;52.13;;;;;;;;;;5051736;28;20029;-70
2022/01/03 00:08:05;;;;;;;91.80;50.75;;;;;;;;;;5051386;28;20495;-71
2022/01/03 00:10:33;;;;;;;102.22;55.80;;;;;;;;;;5050775;28;20021;-67
2022/01/03 00:13:00;;;;;;;104.78;55.08;;;;;;;;;;5051461;28;20086;-68
2022/01/03 00:15:28;;;;;;;106.78;58.08;;;;;;;;;;5050402;28;20052;-68
2022/01/03 00:17:54;;;;;;;102.93;58.47;;;;;;;;;;5050932;28;20032;-68
2022/01/03 00:20:22;;;;;;;90.93;51.45;;;;;;;;;;5051569;28;20025;-68
2022/01/03 00:23:02;;;;;;;98.55;55.55;;;;;;;;;;5051376;28;20029;-69
2022/01/03 00:25:29;;;;;;;86.22;49.95;;;;;;;;;;5050711;28;20559;-69
2022/01/03 00:28:07;;;;;;;78.57;45.45;;;;;;;;;;5051393;28;20074;-67
2022/01/03 00:30:40;;;;;;;78.32;46.80;;;;;;;;;;5051305;28;20514;-67
2022/01/03 00:33:07;;;;;;;75.18;43.45;;;;;;;;;;5053595;28;20098;-69
2022/01/03 00:35:41;;;;;;;145.55;95.75;;;;;;;;;;5053846;28;20453;-69
2022/01/03 00:38:09;;;;;;;118.15;65.53;;;;;;;;;;5054147;28;20925;-68
2022/01/03 00:40:36;;;;;;;124.68;68.50;;;;;;;;;;5034843;28;20032;-68
2022/01/03 00:43:04;;;;;;;115.97;61.60;;;;;;;;;;5034840;28;20499;-69
2022/01/03 00:45:30;;;;;;;53.25;31.67;;;;;;;;;;5035168;28;20479;-68
2022/01/03 00:47:57;;;;;;;36.15;23.08;;;;;;;;;;5042534;28;20080;-68
2022/01/03 00:50:24;;;;;;;30.65;19.42;;;;;;;;;;5055178;28;20087;-67
2022/01/03 00:52:51;;;;;;;32.20;18.35;;;;;;;;;;5053902;28;20032;-67
2022/01/03 00:55:18;;;;;;;22.73;14.63;;;;;;;;;;5053192;28;20039;-68
2022/01/03 00:58:08;;;;;;;23.77;14.13;;;;;;;;;;5053328;28;20098;-67
2022/01/03 01:00:38;;;;;;;22.45;13.98;;;;;;;;;;5054742;28;20029;-70
2022/01/03 01:03:36;;;;;;;25.50;13.50;;;;;;;;;;5053399;28;20105;-67
2022/01/03 01:06:05;;;;;;;24.35;15.55;;;;;;;;;;5051647;28;20045;-68
2022/01/03 01:08:35;;;;;;;31.48;19.10;;;;;;;;;;5054994;28;20017;-69
2022/01/03 01:11:04;;;;;;;37.25;19.75;;;;;;;;;;5052817;28;20033;-69
2022/01/03 01:13:30;;;;;;;33.58;19.02;;;;;;;;;;5069735;28;20028;-68
2022/01/03 01:15:57;;;;;;;26.92;16.75;;;;;;;;;;5070119;28;20124;-67
2022/01/03 01:18:25;;;;;;;30.85;18.63;;;;;;;;;;5069865;28;20036;-68
2022/01/03 01:20:52;;;;;;;36.63;22.77;;;;;;;;;;5048671;28;20024;-68
2022/01/03 01:23:19;;;;;;;45.08;27.70;;;;;;;;;;5051640;28;20021;-67
2022/01/03 01:28:15;;;;;;;46.03;26.23;;;;;;;;;;5052580;28;20037;-67
2022/01/03 01:30:43;;;;;;;38.60;23.63;;;;;;;;;;5054308;28;20055;-67
2022/01/03 01:33:17;;;;;;;35.75;21.70;;;;;;;;;;5066399;28;20083;-67
2022/01/03 01:35:57;;;;;;;27.73;17.55;;;;;;;;;;5041364;28;20025;-68
2022/01/03 01:38:35;;;;;;;27.35;17.13;;;;;;;;;;5052320;28;20094;-70
2022/01/03 01:41:04;;;;;;;27.42;15.60;;;;;;;;;;5052352;28;20116;-67
2022/01/03 01:43:42;;;;;;;27.20;17.40;;;;;;;;;;5037828;28;20525;-66
2022/01/03 01:46:19;;;;;;;29.60;18.38;;;;;;;;;;5049401;28;20029;-69
2022/01/03 01:48:49;;;;;;;38.58;21.02;;;;;;;;;;5043792;28;20041;-66
2022/01/03 01:51:19;;;;;;;35.60;21.75;;;;;;;;;;5032839;28;20060;-67
2022/01/03 01:53:50;;;;;;;30.20;17.60;;;;;;;;;;5049719;28;20492;-69
2022/01/03 01:56:25;;;;;;;;;;;;;;;;;;5046356;28;20033;-66
2022/01/03 01:59:07;;;;;;;38.33;21.60;;;;;;;;;;5034900;28;20383;-67
2022/01/03 02:01:46;;;;;;;36.15;21.83;;;;;;;;;;5046494;28;20087;-70
2022/01/03 02:04:34;;;;;;;40.58;23.08;;;;;;;;;;5051632;28;20047;-66
2022/01/03 02:07:28;;;;;;;39.25;22.05;;;;;;;;;;5052270;28;20037;-65
2022/01/03 02:10:10;;;;;;;42.88;24.80;;;;;;;;;;5053076;28;20034;-68
2022/01/03 02:12:41;;;;;;;43.58;25.20;;;;;;;;;;5047474;28;20041;-67
2022/01/03 02:15:11;;;;;;;39.40;22.63;;;;;;;;;;5045930;28;20499;-67
2022/01/03 02:17:39;;;;;;;41.70;22.15;;;;;;;;;;5051369;28;20043;-68
2022/01/03 02:20:10;;;;;;;38.58;22.30;;;;;;;;;;5052214;28;20025;-67
2022/01/03 02:22:38;;;;;;;35.67;20.27;;;;;;;;;;5052194;28;20025;-67
2022/01/03 02:25:07;;;;;;;38.40;22.42;;;;;;;;;;5068642;28;20032;-66
2022/01/03 02:27:34;;;;;;;47.78;23.17;;;;;;;;;;5053794;28;20098;-68
2022/01/03 02:30:01;;;;;;;33.63;19.40;;;;;;;;;;5068497;28;20187;-67
2022/01/03 02:32:27;;;;;;;37.40;19.08;;;;;;;;;;5068121;28;20110;-66
2022/01/03 02:34:53;;;;;;;25.95;15.43;;;;;;;;;;5068884;28;20036;-68
2022/01/03 02:37:26;;;;;;;17.95;11.25;;;;;;;;;;5052153;28;20061;-66
2022/01/03 02:39:53;;;;;;;20.98;12.50;;;;;;;;;;5051394;28;20087;-66
2022/01/03 02:42:23;;;;;;;19.67;11.30;;;;;;;;;;5052711;28;20120;-68
2022/01/03 02:45:05;;;;;;;19.52;11.35;;;;;;;;;;5031673;28;20125;-68
2022/01/03 02:47:31;;;;;;;14.23;9.48;;;;;;;;;;5031404;28;20492;-69
2022/01/03 02:49:57;;;;;;;14.98;9.65;;;;;;;;;;5031861;28;20034;-67
2022/01/03 02:52:23;;;;;;;20.05;10.00;;;;;;;;;;5031876;28;20068;-70
2022/01/03 02:54:51;;;;;;;20.33;11.05;;;;;;;;;;5030623;28;20104;-66
2022/01/03 02:57:23;;;;;;;19.63;11.82;;;;;;;;;;5030748;28;20040;-67
2022/01/03 02:59:59;;;;;;;19.63;12.13;;;;;;;;;;5031541;28;20037;-67
2022/01/03 03:02:27;;;;;;;19.38;11.35;;;;;;;;;;5031279;28;20047;-67
2022/01/03 03:05:01;;;;;;;17.52;11.50;;;;;;;;;;5031642;28;20029;-68
2022/01/03 03:07:30;;;;;;;23.65;11.68;;;;;;;;;;5031308;28;20034;-68
2022/01/03 03:09:58;;;;;;;16.52;9.90;;;;;;;;;;5045576;28;20033;-66
2022/01/03 03:12:26;;;;;;;21.98;10.18;;;;;;;;;;5039161;28;20129;-67
2022/01/03 03:14:53;;;;;;;14.32;8.95;;;;;;;;;;5031188;28;20025;-67
2022/01/03 03:17:19;;;;;;;16.05;9.60;;;;;;;;;;5032312;28;20037;-67
2022/01/03 03:19:56;;;;;;;13.30;8.85;;;;;;;;;;5031373;28;20022;-69
2022/01/03 03:22:25;;;;;;;18.27;9.45;;;;;;;;;;5032053;28;20045;-68
2022/01/03 03:24:58;;;;;;;15.60;9.75;;;;;;;;;;5030733;28;20025;-67
2022/01/03 03:27:24;;;;;;;14.68;9.43;;;;;;;;;;5031019;28;20034;-66
2022/01/03 03:29:51;;;;;;;16.35;9.20;;;;;;;;;;5031141;28;20564;-67
2022/01/03 03:32:19;;;;;;;15.77;9.55;;;;;;;;;;5046028;28;20432;-68
2022/01/03 03:34:46;;;;;;;15.65;9.68;;;;;;;;;;5049140;28;20036;-68
2022/01/03 03:37:14;;;;;;;22.38;10.95;;;;;;;;;;5050734;28;20454;-66
2022/01/03 03:39:40;;;;;;;24.88;12.63;;;;;;;;;;5066799;28;20162;-66
2022/01/03 03:42:07;;;;;;;27.13;12.63;;;;;;;;;;5067525;28;20064;-66
2022/01/03 03:44:37;;;;;;;28.83;13.82;;;;;;;;;;5067839;28;20068;-67
2022/01/03 03:47:05;;;;;;;16.85;10.45;;;;;;;;;;5049659;28;20065;-67
2022/01/03 03:49:33;;;;;;;20.80;11.40;;;;;;;;;;5049809;28;20072;-67
2022/01/03 03:52:01;;;;;;;24.90;11.73;;;;;;;;;;5050514;28;20095;-67
2022/01/03 03:54:28;;;;;;;21.63;12.38;;;;;;;;;;5066966;28;20364;-66
2022/01/03 03:56:56;;;;;;;22.25;12.60;;;;;;;;;;5051838;28;20055;-66
2022/01/03 03:59:22;;;;;;;19.83;10.65;;;;;;;;;;5050110;28;20045;-66
2022/01/03 04:01:48;;;;;;;20.02;11.68;;;;;;;;;;5066251;28;20033;-69
2022/01/03 04:04:14;;;;;;;20.90;12.57;;;;;;;;;;5066616;28;20032;-66
2022/01/03 04:06:41;;;;;;;21.75;12.73;;;;;;;;;;5066906;28;20048;-66
2022/01/03 04:09:07;;;;;;;22.15;13.60;;;;;;;;;;5042139;28;20021;-66
2022/01/03 04:11:33;;;;;;;27.67;17.08;;;;;;;;;;5031479;28;20416;-66
2022/01/03 04:14:01;;;;;;;27.23;15.60;;;;;;;;;;5049860;28;20029;-66
2022/01/03 04:16:27;;;;;;;32.58;16.45;;;;;;;;;;5048464;28;20124;-66
2022/01/03 04:18:53;;;;;;;32.92;19.42;;;;;;;;;;5066395;28;20033;-66
2022/01/03 04:21:20;;;;;;;31.40;17.85;;;;;;;;;;5066657;28;20112;-66
2022/01/03 04:23:46;;;;;;;25.80;14.98;;;;;;;;;;5050987;28;20032;-65
2022/01/03 04:26:12;;;;;;;26.50;14.90;;;;;;;;;;5066539;28;20047;-66
2022/01/03 04:28:39;;;;;;;29.67;14.93;;;;;;;;;;5066864;28;20057;-68
2022/01/03 04:31:06;;;;;;;34.67;16.15;;;;;;;;;;5050689;28;20048;-67
2022/01/03 04:33:33;;;;;;;27.30;16.77;;;;;;;;;;5049941;28;20033;-67
2022/01/03 04:35:59;;;;;;;35.90;18.23;;;;;;;;;;5066386;28;20120;-67
2022/01/03 04:38:26;;;;;;;29.63;17.00;;;;;;;;;;5065784;28;20090;-67
2022/01/03 04:40:52;;;;;;;31.55;17.65;;;;;;;;;;5066362;28;20037;-66
2022/01/03 04:43:18;;;;;;;28.50;17.52;;;;;;;;;;5066553;28;20025;-67
2022/01/03 04:45:44;;;;;;;25.20;16.83;;;;;;;;;;5048944;28;20036;-65
2022/01/03 04:48:11;;;;;;;31.85;17.60;;;;;;;;;;5050812;28;20017;-67
2022/01/03 04:50:37;;;;;;;44.83;18.92;;;;;;;;;;5050686;28;20398;-66
2022/01/03 04:53:03;;;;;;;31.88;17.75;;;;;;;;;;5065802;28;20029;-67
2022/01/03 04:55:29;;;;;;;29.80;18.17;;;;;;;;;;5050802;28;20162;-67
2022/01/03 04:57:55;;;;;;;32.78;18.58;;;;;;;;;;5066345;28;20116;-66
2022/01/03 05:00:21;;;;;;;31.83;17.58;;;;;;;;;;5047109;28;20436;-66
2022/01/03 05:02:47;;;;;;;34.03;18.05;;;;;;;;;;5029836;28;20033;-67
2022/01/03 05:05:14;;;;;;;30.67;17.88;;;;;;;;;;5029106;28;20155;-66
2022/01/03 05:07:41;;;;;;;36.42;19.73;;;;;;;;;;5029616;28;20142;-67
2022/01/03 05:10:07;;;;;;;36.83;19.27;;;;;;;;;;5033023;28;20037;-66
2022/01/03 05:12:33;;;;;;;35.50;20.17;;;;;;;;;;5029557;28;20396;-67
2022/01/03 05:14:59;;;;;;;35.65;20.55;;;;;;;;;;5029950;28;20034;-66
2022/01/03 05:17:29;;;;;;;35.08;20.23;;;;;;;;;;5049238;28;20029;-66
2022/01/03 05:19:55;;;;;;;28.92;18.35;;;;;;;;;;5057553;28;20036;-64
2022/01/03 05:22:21;;;;;;;31.58;19.70;;;;;;;;;;5050650;28;20506;-66
2022/01/03 05:24:47;;;;;;;33.72;19.08;;;;;;;;;;5034127;28;20072;-66
2022/01/03 05:27:13;;;;;;;34.92;16.85;;;;;;;;;;5034100;28;20053;-67
2022/01/03 05:29:39;;;;;;;33.42;15.60;;;;;;;;;;5034912;28;20114;-65
2022/01/03 05:32:06;;;;;;;29.50;16.27;;;;;;;;;;5034788;28;20491;-67
2022/01/03 05:34:32;;;;;;;24.58;16.02;;;;;;;;;;5035322;28;20035;-65
2022/01/03 05:36:58;;;;;;;29.35;15.95;;;;;;;;;;5016463;28;20032;-65
2022/01/03 05:39:24;;;;;;;30.63;15.82;;;;;;;;;;5034795;28;20049;-66
2022/01/03 05:41:50;;;;;;;34.15;16.42;;;;;;;;;;5043075;28;20188;-67
2022/01/03 05:44:16;;;;;;;26.38;13.50;;;;;;;;;;5040543;28;20040;-67
2022/01/03 05:46:42;;;;;;;22.35;13.90;;;;;;;;;;5041819;28;20083;-66
2022/01/03 05:49:11;;;;;;;24.27;14.05;;;;;;;;;;5042728;28;20033;-66
2022/01/03 05:51:38;;;;;;;23.75;13.43;;;;;;;;;;5033338;28;20022;-66
2022/01/03 05:54:05;;;;;;;36.00;15.40;;;;;;;;;;5033816;28;20119;-66
2022/01/03 05:56:31;;;;;;;28.30;14.02;;;;;;;;;;5033255;28;20025;-66
2022/01/03 05:58:57;;;;;;;30.52;15.50;;;;;;;;;;5033261;28;20038;-66
2022/01/03 06:01:25;;;;;;;30.83;16.77;;;;;;;;;;5033484;28;20546;-66
2022/01/03 06:04:00;;;;;;;28.75;17.20;;;;;;;;;;5033685;28;20439;-67
2022/01/03 06:09:15;;;;;;;29.77;16.25;;;;;;;;;;5033250;28;20400;-66
2022/01/03 06:11:40;;;;;;;40.97;17.35;;;;;;;;;;5033455;28;20021;-67
2022/01/03 06:14:07;;;;;;;29.92;17.35;;;;;;;;;;5033271;28;20026;-67
2022/01/03 06:16:33;;;;;;;39.13;16.35;;;;;;;;;;5033135;28;20435;-67
2022/01/03 06:18:59;;;;;;;26.48;15.70;;;;;;;;;;5032595;28;20056;-66
2022/01/03 06:21:25;;;;;;;28.00;15.07;;;;;;;;;;5032546;28;20041;-68
2022/01/03 06:23:52;;;;;;;24.55;15.13;;;;;;;;;;5033120;28;20439;-68
2022/01/03 06:26:19;;;;;;;32.47;16.48;;;;;;;;;;5050867;28;20021;-71
2022/01/03 06:28:49;;;;;;;35.95;16.55;;;;;;;;;;5069290;28;20033;-68
2022/01/03 06:31:17;;;;;;;29.10;14.98;;;;;;;;;;5069221;28;20075;-68
2022/01/03 06:33:43;;;;;;;21.55;13.00;;;;;;;;;;5068906;28;20187;-69
2022/01/03 06:36:09;;;;;;;29.85;14.48;;;;;;;;;;5068903;28;20487;-67
2022/01/03 06:38:36;;;;;;;29.17;14.35;;;;;;;;;;5069143;28;20037;-69
2022/01/03 06:41:04;;;;;;;40.60;17.60;;;;;;;;;;5069413;28;20039;-69
2022/01/03 06:43:30;;;;;;;29.23;15.73;;;;;;;;;;5069049;28;20442;-68
2022/01/03 06:45:57;;;;;;;36.00;17.98;;;;;;;;;;5068985;28;20452;-67
2022/01/03 06:48:23;;;;;;;43.60;21.13;;;;;;;;;;5045643;28;20461;-68
2022/01/03 06:50:50;;;;;;;43.90;19.63;;;;;;;;;;5068968;28;20037;-68
2022/01/03 06:53:16;;;;;;;33.78;17.88;;;;;;;;;;5052155;28;20079;-67
2022/01/03 06:55:42;;;;;;;41.55;19.35;;;;;;;;;;5068793;28;20025;-68
2022/01/03 06:58:08;;;;;;;24.48;16.58;;;;;;;;;;5051891;28;20025;-68
2022/01/03 07:00:34;;;;;;;30.10;19.00;;;;;;;;;;5051897;28;20065;-68
2022/01/03 07:03:00;;;;;;;26.40;15.93;;;;;;;;;;5068665;28;20404;-68
2022/01/03 07:05:27;;;;;;;48.83;22.88;;;;;;;;;;5053039;28;20033;-71
2022/01/03 07:07:53;;;;;;;30.63;17.42;;;;;;;;;;5051702;28;20025;-73
2022/01/03 07:10:19;;;;;;;34.70;16.67;;;;;;;;;;5043356;28;20036;-70
2022/01/03 07:12:50;;;;;;;27.25;15.88;;;;;;;;;;5050308;28;20498;-71
2022/01/03 07:20:47;;;;;;;37.80;16.67;;;;;;;;;;5053368;28;20033;-73
2022/01/03 07:23:13;;;;;;;30.15;15.18;;;;;;;;;;5052962;28;20052;-71
2022/01/03 07:25:40;;;;;;;23.63;14.82;;;;;;;;;;5052737;28;20108;-71
2022/01/03 07:28:07;;;;;;;21.90;14.07;;;;;;;;;;5052448;28;20021;-70
2022/01/03 07:30:33;;;;;;;23.58;13.25;;;;;;;;;;5052614;28;20079;-71
2022/01/03 07:33:00;;;;;;;23.92;15.10;;;;;;;;;;5052696;28;20036;-74
2022/01/03 07:35:26;;;;;;;35.85;16.52;;;;;;;;;;5052635;28;20558;-76
2022/01/03 07:37:53;;;;;;;23.92;16.42;;;;;;;;;;5052389;28;20121;-72
2022/01/03 07:40:20;;;;;;;32.90;16.35;;;;;;;;;;5052275;28;20033;-73
2022/01/03 07:42:46;;;;;;;25.77;14.48;;;;;;;;;;5052606;28;20020;-73
2022/01/03 07:45:13;;;;;;;21.83;14.20;;;;;;;;;;5052730;28;20103;-74
2022/01/03 07:47:39;;;;;;;19.70;12.48;;;;;;;;;;5052353;28;20025;-71
2022/01/03 07:50:07;;;;;;;20.65;12.50;;;;;;;;;;5050379;28;20055;-70
2022/01/03 07:52:35;;;;;;;18.85;11.95;;;;;;;;;;5043664;28;20033;-70
2022/01/03 07:55:01;;;;;;;22.45;11.88;;;;;;;;;;5033111;28;20033;-72
2022/01/03 07:57:27;;;;;;;23.17;12.25;;;;;;;;;;5032204;28;20017;-73
2022/01/03 07:59:53;;;;;;;31.00;12.48;;;;;;;;;;5044632;28;20033;-69
2022/01/03 08:02:19;;;;;;;31.25;12.77;;;;;;;;;;5051624;28;20455;-70
2022/01/03 08:04:45;;;;;;;18.17;11.45;;;;;;;;;;5049989;28;20039;-70
2022/01/03 08:07:11;;;;;;;19.50;11.32;;;;;;;;;;5045089;28;20457;-71
2022/01/03 08:09:38;;;;;;;23.65;11.02;;;;;;;;;;5037985;28;20067;-70
2022/01/03 08:12:05;;;;;;;16.45;11.05;;;;;;;;;;5031163;28;20029;-70
2022/01/03 08:14:32;;;;;;;17.98;11.60;;;;;;;;;;5031063;28;20477;-70
2022/01/03 08:16:58;;;;;;;18.67;11.65;;;;;;;;;;5031106;28;20026;-74
2022/01/03 08:19:25;;;;;;;22.13;11.75;;;;;;;;;;5032668;28;20359;-71
2022/01/03 08:21:51;;;;;;;22.10;13.05;;;;;;;;;;5043059;28;20025;-70
2022/01/03 08:24:18;;;;;;;22.15;13.25;;;;;;;;;;5048443;28;20029;-72
2022/01/03 08:26:44;;;;;;;25.35;12.25;;;;;;;;;;5038209;28;20098;-70
2022/01/03 08:29:11;;;;;;;19.50;12.50;;;;;;;;;;5030244;28;20127;-72
2022/01/03 08:31:37;;;;;;;21.60;12.63;;;;;;;;;;5031317;28;20496;-70
2022/01/03 08:34:07;;;;;;;18.45;11.85;;;;;;;;;;5039282;28;20037;-72
2022/01/03 08:36:33;;;;;;;21.02;10.20;;;;;;;;;;5029860;28;20033;-72
2022/01/03 08:38:58;;;;;;;33.58;12.15;;;;;;;;;;5032800;28;20045;-71
2022/01/03 08:41:24;;;;;;;14.32;9.98;;;;;;;;;;5050427;28;20483;-71
2022/01/03 08:43:51;;;;;;;17.33;11.88;;;;;;;;;;5042652;28;20044;-72
2022/01/03 08:46:17;;;;;;;16.55;11.07;;;;;;;;;;5030841;28;20022;-73
2022/01/03 08:48:43;;;;;;;22.08;12.57;;;;;;;;;;5030068;28;20464;-74
2022/01/03 08:51:09;;;;;;;18.83;12.43;;;;;;;;;;5029845;28;20033;-70
2022/01/03 08:53:36;;;;;;;22.70;13.02;;;;;;;;;;5034197;28;20120;-74
2022/01/03 08:56:02;;;;;;;25.13;12.80;;;;;;;;;;5034501;28;20030;-71
2022/01/03 08:58:29;;;;;;;16.83;11.43;;;;;;;;;;5036525;28;20114;-71
2022/01/03 09:00:54;;;;;;;20.33;12.75;;;;;;;;;;5034101;28;20381;-72
2022/01/03 09:03:20;;;;;;;21.27;14.02;;;;;;;;;;5032304;28;20037;-71
2022/01/03 09:05:47;;;;;;;22.77;14.75;;;;;;;;;;5033464;28;20033;-73
2022/01/03 09:08:13;;;;;;;32.10;16.63;;;;;;;;;;5032735;28;20064;-72
2022/01/03 09:10:40;;;;;;;21.80;13.75;;;;;;;;;;5034467;28;20037;-73
2022/01/03 09:13:06;;;;;;;22.17;12.95;;;;;;;;;;5032956;28;20025;-70
2022/01/03 09:15:32;;;;;;;25.55;14.20;;;;;;;;;;5032268;28;20030;-70
2022/01/03 09:18:01;;;;;;;22.42;14.38;;;;;;;;;;5034705;28;20468;-73
2022/01/03 09:20:27;;;;;;;24.40;14.68;;;;;;;;;;5032418;28;20021;-71
2022/01/03 09:23:04;;;;;;;26.00;15.07;;;;;;;;;;5032837;28;20507;-72
2022/01/03 09:30:49;;;;;;;21.48;12.63;;;;;;;;;;5054435;28;20345;-71
2022/01/03 09:33:15;;;;;;;19.08;12.90;;;;;;;;;;5051498;28;21327;-71
2022/01/03 09:35:41;;;;;;;15.98;11.70;;;;;;;;;;5054053;28;20027;-72
2022/01/03 09:38:07;;;;;;;17.30;11.38;;;;;;;;;;5034710;28;20110;-72
2022/01/03 09:40:34;;;;;;;17.73;11.88;;;;;;;;;;5034472;28;20039;-69
2022/01/03 09:43:01;;;;;;;22.48;12.75;;;;;;;;;;5041323;28;20126;-70
2022/01/03 09:45:34;;;;;;;14.65;10.98;;;;;;;;;;5037717;28;20136;-71
2022/01/03 09:48:03;;;;;;;16.77;11.30;;;;;;;;;;5032916;28;20099;-71
2022/01/03 09:50:32;;;;;;;14.48;10.82;;;;;;;;;;5034134;28;20030;-71
2022/01/03 09:52:58;;;;;;;15.73;10.63;;;;;;;;;;5033239;28;20030;-73
2022/01/03 09:55:24;;;;;;;16.23;11.27;;;;;;;;;;5034049;28;20048;-75
2022/01/03 09:57:50;;;;;;;17.23;11.20;;;;;;;;;;5035392;28;20033;-72
2022/01/03 10:00:22;;;;;;;17.88;11.63;;;;;;;;;;5038199;28;20033;-71
2022/01/03 10:02:49;;;;;;;19.92;13.18;;;;;;;;;;5046158;28;20033;-74
2022/01/03 10:05:15;;;;;;;21.30;13.63;;;;;;;;;;5049747;28;20116;-72
2022/01/03 10:07:41;;;;;;;22.35;14.77;;;;;;;;;;5040575;28;20078;-69
2022/01/03 10:10:09;;;;;;;21.65;14.70;;;;;;;;;;5040522;28;20025;-70
2022/01/03 10:12:36;;;;;;;21.20;14.80;;;;;;;;;;5038689;28;20116;-71
2022/01/03 10:15:06;;;;;;;25.95;17.70;;;;;;;;;;5033922;28;20088;-70
2022/01/03 10:17:36;;;;;;;22.10;14.63;;;;;;;;;;5044219;28;20032;-70
2022/01/03 10:20:04;;;;;;;27.25;15.05;;;;;;;;;;5034404;28;20040;-70
2022/01/03 10:22:33;;;;;;;21.92;14.63;;;;;;;;;;5033990;28;20164;-69
2022/01/03 10:25:08;;;;;;;19.38;14.00;;;;;;;;;;5032538;28;20037;-70
2022/01/03 10:27:52;;;;;;;19.95;13.82;;;;;;;;;;5043443;28;20033;-71
2022/01/03 10:30:36;;;;;;;21.63;15.18;;;;;;;;;;5036074;28;20114;-72
2022/01/03 10:33:04;;;;;;;24.73;13.48;;;;;;;;;;5032768;28;20045;-73
2022/01/03 10:35:42;;;;;;;22.30;14.50;;;;;;;;;;5033422;28;20033;-72
2022/01/03 10:38:09;;;;;;;21.92;14.02;;;;;;;;;;5033239;28;20041;-72
2022/01/03 10:40:35;;;;;;;21.58;15.43;;;;;;;;;;5033940;28;20112;-74
2022/01/03 10:43:16;;;;;;;25.63;16.35;;;;;;;;;;5044491;28;20033;-71
2022/01/03 10:45:43;;;;;;;23.60;16.08;;;;;;;;;;5033542;28;20044;-68
2022/01/03 10:48:31;;;;;;;22.50;15.95;;;;;;;;;;5032062;28;20033;-69
2022/01/03 10:50:58;;;;;;;22.10;16.45;;;;;;;;;;5033674;28;20043;-69
2022/01/03 10:53:37;;;;;;;23.50;15.48;;;;;;;;;;5033413;28;20036;-70
2022/01/03 10:56:23;;;;;;;25.13;16.90;;;;;;;;;;5052611;28;20048;-72
2022/01/03 10:58:50;;;;;;;23.77;16.50;;;;;;;;;;5051440;28;20047;-71
2022/01/03 11:01:24;;;;;;;22.50;16.48;;;;;;;;;;5033546;28;20465;-69
2022/01/03 11:03:51;;;;;;;27.38;16.27;;;;;;;;;;5032989;28;20036;-71
2022/01/03 11:06:35;;;;;;;25.23;15.43;;;;;;;;;;5033089;28;20026;-70
2022/01/03 11:11:52;;;;;;;23.75;17.50;;;;;;;;;;5034289;28;20037;-71
2022/01/03 11:14:30;;;;;;;23.48;16.48;;;;;;;;;;5031864;28;20112;-70
2022/01/03 11:16:57;;;;;;;26.23;16.23;;;;;;;;;;5032534;28;20329;-70
2022/01/03 11:19:40;;;;;;;24.15;16.73;;;;;;;;;;5032593;28;20040;-69
2022/01/03 11:22:06;;;;;;;24.55;17.38;;;;;;;;;;5032671;28;20060;-71
2022/01/03 11:24:32;;;;;;;30.60;18.98;;;;;;;;;;5031948;28;20460;-70
2022/01/03 11:26:58;;;;;;;32.85;18.45;;;;;;;;;;5032588;28;20508;-69
2022/01/03 11:29:30;;;;;;;33.42;18.08;;;;;;;;;;5032075;28;20025;-72
2022/01/03 11:31:59;;;;;;;29.27;18.38;;;;;;;;;;5033176;28;20357;-68
2022/01/03 11:34:25;;;;;;;32.30;19.73;;;;;;;;;;5041356;28;20188;-70
2022/01/03 11:36:51;;;;;;;26.05;17.63;;;;;;;;;;5029904;28;20037;-70
2022/01/03 11:39:20;;;;;;;24.90;16.90;;;;;;;;;;5032104;28;20090;-70
2022/01/03 11:41:46;;;;;;;27.08;16.80;;;;;;;;;;5032367;28;20030;-69
2022/01/03 11:44:15;;;;;;;22.52;16.92;;;;;;;;;;5032066;28;20021;-68
2022/01/03 11:46:45;;;;;;;21.27;15.15;;;;;;;;;;5050372;28;20396;-69
2022/01/03 11:49:12;;;;;;;22.88;15.95;;;;;;;;;;5045235;28;20053;-69
2022/01/03 11:51:39;;;;;;;28.58;18.00;;;;;;;;;;5036671;28;20684;-70
2022/01/03 11:54:07;;;;;;;27.15;18.02;;;;;;;;;;5044317;28;20534;-71
2022/01/03 11:56:39;;;;;;;30.40;19.55;;;;;;;;;;5018774;28;20105;-73
2022/01/03 12:04:40;;;;;;;29.40;18.35;;;;;;;;;;5011180;28;20452;-70
2022/01/03 12:07:09;;;;;;;26.13;16.75;;;;;;;;;;5010861;28;20037;-70
2022/01/03 12:09:37;;;;;;;31.10;19.27;;;;;;;;;;5011210;28;20117;-75
2022/01/03 12:12:04;;;;;;;26.23;16.80;;;;;;;;;;5011628;28;20029;-75
2022/01/03 12:14:47;;;;;;;25.85;17.45;;;;;;;;;;5011549;28;20469;-75
2022/01/03 12:17:16;;;;;;;31.23;17.65;;;;;;;;;;5011200;28;20096;-70
2022/01/03 12:19:45;;;;;;;23.58;16.70;;;;;;;;;;5012179;28;20069;-72
2022/01/03 12:22:17;;;;;;;23.33;16.48;;;;;;;;;;5012077;28;20109;-71
2022/01/03 12:24:46;;;;;;;29.40;17.83;;;;;;;;;;5011886;28;20057;-71
2022/01/03 12:27:15;;;;;;;22.67;16.38;;;;;;;;;;5012036;28;20033;-71
2022/01/03 12:29:56;;;;;;;26.55;16.92;;;;;;;;;;5011485;28;20057;-70
2022/01/03 12:32:26;;;;;;;21.38;15.07;;;;;;;;;;5020583;28;20041;-70
2022/01/03 12:35:15;;;;;;;24.52;15.40;;;;;;;;;;5023547;28;20025;-68
2022/01/03 12:37:47;;;;;;;23.50;15.57;;;;;;;;;;5023790;28;20071;-70
2022/01/03 12:40:27;;;;;;;23.13;15.27;;;;;;;;;;5031600;28;20069;-70
2022/01/03 12:42:56;;;;;;;26.67;17.23;;;;;;;;;;5031935;28;20136;-70
2022/01/03 12:45:33;;;;;;;25.50;16.20;;;;;;;;;;5031881;28;20033;-69
2022/01/03 12:48:11;;;;;;;23.70;16.75;;;;;;;;;;5032092;28;20132;-70
2022/01/03 12:51:04;;;;;;;21.90;15.32;;;;;;;;;;5031869;28;20034;-71
2022/01/03 12:53:29;;;;;;;23.90;14.55;;;;;;;;;;5023574;28;20047;-70
2022/01/03 12:56:25;;;;;;;24.00;14.82;;;;;;;;;;5041960;28;20427;-69
2022/01/03 12:58:53;;;;;;;27.95;16.67;;;;;;;;;;5026644;28;20053;-70
2022/01/03 13:01:19;;;;;;;23.40;16.48;;;;;;;;;;5031366;28;20025;-70
2022/01/03 13:03:50;;;;;;;21.95;15.52;;;;;;;;;;5031424;28;20043;-70
2022/01/03 13:06:22;;;;;;;25.75;16.35;;;;;;;;;;5031727;28;20113;-70
2022/01/03 13:08:48;;;;;;;23.15;15.77;;;;;;;;;;5031254;28;20036;-70
2022/01/03 13:11:16;;;;;;;22.25;14.68;;;;;;;;;;5032168;28;20022;-71
2022/01/03 13:13:45;;;;;;;24.10;16.38;;;;;;;;;;5031777;28;20136;-70
2022/01/03 13:16:21;;;;;;;23.55;15.88;;;;;;;;;;5030733;28;20021;-71
2022/01/03 13:18:57;;;;;;;26.15;16.38;;;;;;;;;;5032066;28;20033;-70
2022/01/03 13:21:26;;;;;;;28.92;15.43;;;;;;;;;;5031837;28;20103;-71
2022/01/03 13:23:57;;;;;;;21.48;15.02;;;;;;;;;;5032197;28;20029;-70
2022/01/03 13:26:24;;;;;;;20.85;14.32;;;;;;;;;;5031761;28;20029;-71
2022/01/03 13:28:52;;;;;;;22.75;15.02;;;;;;;;;;5030737;28;20017;-71
2022/01/03 13:31:19;;;;;;;19.52;14.63;;;;;;;;;;5031337;28;20084;-70
2022/01/03 13:33:44;;;;;;;21.65;14.98;;;;;;;;;;5031371;28;20388;-71
2022/01/03 13:36:18;;;;;;;19.48;13.98;;;;;;;;;;5031489;28;20061;-71
2022/01/03 13:38:44;;;;;;;24.33;15.98;;;;;;;;;;5032463;28;20464;-71
2022/01/03 13:41:13;;;;;;;30.38;18.88;;;;;;;;;;5035266;28;20026;-71
2022/01/03 13:43:44;;;;;;;24.92;18.45;;;;;;;;;;5035302;28;20033;-71
2022/01/03 13:51:21;;;;;;;29.58;17.27;;;;;;;;;;5035178;28;20049;-71
2022/01/03 13:53:51;;;;;;;30.50;18.48;;;;;;;;;;5035121;28;20028;-71
2022/01/03 13:56:17;;;;;;;32.10;17.52;;;;;;;;;;5034431;28;20025;-70
2022/01/03 13:58:44;;;;;;;28.95;18.38;;;;;;;;;;5034745;28;20407;-70
2022/01/03 14:01:10;;;;;;;24.63;16.33;;;;;;;;;;5034813;28;20115;-71
2022/01/03 14:03:36;;;;;;;27.20;17.88;;;;;;;;;;5034867;28;20045;-71
2022/01/03 14:06:19;;;;;;;27.65;17.90;;;;;;;;;;5034631;28;20048;-69
2022/01/03 14:08:49;;;;;;;27.20;18.15;;;;;;;;;;5034326;28;20033;-70
2022/01/03 14:11:18;;;;;;;31.92;18.42;;;;;;;;;;5034173;28;20036;-71
2022/01/03 14:13:43;;;;;;;28.73;18.10;;;;;;;;;;5034446;28;20029;-70
2022/01/03 14:16:11;;;;;;;27.13;18.25;;;;;;;;;;5032842;28;20072;-69
2022/01/03 14:18:46;;;;;;;28.48;18.58;;;;;;;;;;5034412;28;20032;-70
2022/01/03 14:21:18;;;;;;;35.75;19.45;;;;;;;;;;5034446;28;20503;-70
2022/01/03 14:23:53;;;;;;;29.00;18.13;;;;;;;;;;5032988;28;20040;-70
2022/01/03 14:26:30;;;;;;;31.55;17.60;;;;;;;;;;5034547;28;20085;-70
2022/01/03 14:29:15;;;;;;;37.53;19.45;;;;;;;;;;5032941;28;20496;-71
2022/01/03 14:31:59;;;;;;;32.33;19.17;;;;;;;;;;5034305;28;20073;-71
2022/01/03 14:34:40;;;;;;;28.35;19.50;;;;;;;;;;5033978;28;20108;-73
2022/01/03 14:37:07;;;;;;;36.17;23.05;;;;;;;;;;5032507;28;20036;-74
2022/01/03 14:39:54;;;;;;;36.92;22.38;;;;;;;;;;5034361;28;20105;-71
2022/01/03 14:42:29;;;;;;;37.28;22.63;;;;;;;;;;5034022;28;20057;-73
2022/01/03 14:45:09;;;;;;;32.75;20.42;;;;;;;;;;5033948;28;20029;-78
2022/01/03 14:47:35;;;;;;;28.45;18.33;;;;;;;;;;5033736;28;20057;-73
2022/01/03 14:50:08;;;;;;;29.50;17.80;;;;;;;;;;5033981;28;20789;-72
2022/01/03 14:52:35;;;;;;;26.77;18.03;;;;;;;;;;5033989;28;20128;-73
2022/01/03 14:55:03;;;;;;;31.40;19.38;;;;;;;;;;5033833;28;20254;-70
2022/01/03 14:57:30;;;;;;;41.88;22.88;;;;;;;;;;5033834;28;20044;-71
2022/01/03 15:00:01;;;;;;;48.63;26.42;;;;;;;;;;5033439;28;20040;-72